»·PEaware :: N618AB KSBA-KSNA

N618AB :: KSBA-KSNA

FLIGHT INFORMATION

Flight Status: Arrived
Operator: Privately registered:
United States
More flights under this callsign
Pilot: Saso K. (7898)
Aircraft: BEECH AIRCRAFT BEECH AIRLINER
(B190)
More flights by this aircraft type
Origin: KSBA Santa Barbara Mun
United States
Destination: KSNA John Wayne-Orange Co
United States
More flights between these airports :: More routes between these airports
Route: +KWANG VTU V208 SXC SLI
File this flight plan on PilotEdge
Remarks:
Altitude:
(Current/Filed)
9,000ft
Speed:
(Current/Filed)
0kts
Departed: 24-Dec-16 09:17 AM
Arrived: 24-Dec-16 09:56 AM
Distance/Time
Traveled:
108nm/0:38
Distance/Time
To Go:
Arrived

Flight Plot

Page will automatically refresh every two minutes.


Map Options




Map Legend


Flown Route
Filed Route
Departure Airport
Arrival Airport
Navaid (VOR, NDB)
Fix

Horizontal Profiles

Position Reports

Time Latitude Longitude Heading Altitude Ground
Speed
24-Dec-16 08:56 34.422766 -119.835864 255 12ft 0kts
24-Dec-16 08:57 34.422766 -119.835864 255 12ft 0kts
24-Dec-16 08:58 34.422766 -119.835864 255 12ft 0kts
24-Dec-16 08:59 34.422766 -119.835864 255 12ft 0kts
24-Dec-16 09:00 34.422766 -119.835864 255 12ft 0kts
24-Dec-16 09:01 34.422766 -119.835864 255 12ft 0kts
24-Dec-16 09:02 34.422766 -119.835864 255 12ft 0kts
24-Dec-16 09:03 34.422766 -119.835864 255 12ft 0kts
24-Dec-16 09:04 34.422742 -119.835990 258 12ft 2kts
24-Dec-16 09:05 34.423464 -119.837361 350 13ft 10kts
24-Dec-16 09:06 34.426593 -119.838178 48 12ft 7kts
24-Dec-16 09:07 34.427026 -119.834645 359 12ft 3kts
24-Dec-16 09:08 34.427311 -119.834655 353 12ft 4kts
24-Dec-16 09:09 34.427680 -119.846466 269 87ft 118kts
24-Dec-16 09:10 34.425562 -119.890514 269 1593ft 152kts
24-Dec-16 09:11 34.417190 -119.942339 223 3082ft 183kts
24-Dec-16 09:12 34.371394 -119.926238 151 4938ft 188kts
24-Dec-16 09:13 34.325917 -119.894184 151 6860ft 195kts
24-Dec-16 09:14 34.286255 -119.865940 151 8152ft 212kts
24-Dec-16 09:15 34.226942 -119.824234 151 8007ft 266kts
24-Dec-16 09:16 34.161474 -119.777602 139 7978ft 282kts
24-Dec-16 09:17 34.109963 -119.689906 123 8928ft 253kts
24-Dec-16 09:18 34.075685 -119.629507 123 9022ft 277kts
24-Dec-16 09:19 34.031674 -119.552245 124 9010ft 290kts
24-Dec-16 09:20 33.987582 -119.475069 124 9004ft 293kts
24-Dec-16 09:21 33.942409 -119.396184 124 9004ft 294kts
24-Dec-16 09:22 33.909076 -119.338068 124 9002ft 295kts
24-Dec-16 09:23 33.888037 -119.301440 124 8998ft 295kts
24-Dec-16 09:24 33.849098 -119.233708 124 8997ft 295kts
24-Dec-16 09:25 33.803557 -119.154677 124 8998ft 295kts
24-Dec-16 09:26 33.754162 -119.079792 126 8986ft 294kts
24-Dec-16 09:27 33.708264 -119.001112 124 8998ft 294kts
24-Dec-16 09:28 33.663335 -118.922199 125 8996ft 292kts
24-Dec-16 09:29 33.618492 -118.843481 126 8993ft 289kts
24-Dec-16 09:30 33.574081 -118.765760 126 8991ft 286kts
24-Dec-16 09:31 33.529286 -118.687579 126 8992ft 285kts
24-Dec-16 09:32 33.485720 -118.609153 110 8953ft 288kts
24-Dec-16 09:33 33.502225 -118.518519 70 8993ft 286kts
24-Dec-16 09:34 33.526365 -118.428504 70 8992ft 286kts
24-Dec-16 09:35 33.548469 -118.346194 71 8992ft 286kts
24-Dec-16 09:36 33.565835 -118.281909 71 8991ft 282kts
24-Dec-16 09:37 33.587612 -118.201338 71 7899ft 247kts
24-Dec-16 09:38 33.608259 -118.125343 71 6439ft 240kts
24-Dec-16 09:39 33.628452 -118.051513 71 5146ft 233kts
24-Dec-16 09:40 33.646735 -117.984825 70 4534ft 216kts
24-Dec-16 09:41 33.663331 -117.925518 62 3438ft 194kts
24-Dec-16 09:42 33.699217 -117.896422 27 2213ft 187kts
24-Dec-16 09:43 33.736344 -117.872825 24 1991ft 181kts
24-Dec-16 09:44 33.759256 -117.837168 113 1697ft 186kts
24-Dec-16 09:45 33.728011 -117.835674 207 1198ft 138kts
24-Dec-16 09:46 33.697697 -117.854906 209 429ft 124kts
24-Dec-16 09:47 33.671594 -117.871425 207 51ft 53kts
24-Dec-16 09:48 33.669137 -117.871562 119 55ft 0kts
24-Dec-16 09:49 33.669367 -117.870726 38 54ft 8kts
24-Dec-16 09:50 33.671271 -117.868627 84 51ft 3kts
24-Dec-16 09:51 33.671129 -117.867648 24 51ft 0kts
24-Dec-16 09:52 33.671130 -117.867648 24 51ft 0kts
24-Dec-16 09:53 33.671130 -117.867648 24 51ft 0kts
24-Dec-16 09:54 33.671130 -117.867648 24 51ft 0kts
24-Dec-16 09:55 33.671130 -117.867648 24 51ft 0kts
24-Dec-16 09:56 33.671130 -117.867648 24 51ft 0kts
24-Dec-16 09:57 33.671130 -117.867648 24 51ft 0kts
24-Dec-16 09:58 33.671130 -117.867648 24 51ft 0kts
24-Dec-16 09:59 33.671130 -117.867648 24 51ft 0kts
24-Dec-16 10:00 33.671130 -117.867648 24 51ft 0kts
24-Dec-16 10:01 33.671130 -117.867648 24 51ft 0kts
24-Dec-16 10:02 33.671130 -117.867648 24 51ft 0kts

Navigation Log

Ident Type
Flight plan parsing failed, navigation log unavailable